createdAt,value
2023-03-06T00:04:29.270Z,2.83
2023-03-06T00:09:31.318Z,3.40
2023-03-06T00:14:33.349Z,2.90
2023-03-06T00:19:35.365Z,2.60
2023-03-06T00:24:37.410Z,3.05
2023-03-06T00:29:39.402Z,2.40
2023-03-06T00:34:41.476Z,2.53
2023-03-06T00:39:43.497Z,2.42
2023-03-06T00:44:46.313Z,2.92
2023-03-06T00:49:48.378Z,3.00
2023-03-06T00:54:50.534Z,2.45
2023-03-06T00:59:52.586Z,1.63
2023-03-06T01:04:56.160Z,2.05
2023-03-06T01:09:58.199Z,2.38
2023-03-06T01:15:00.307Z,2.35
2023-03-06T01:20:06.225Z,2.15
2023-03-06T01:25:09.330Z,1.80
2023-03-06T01:30:12.075Z,2.80
2023-03-06T01:35:14.363Z,2.13
2023-03-06T01:40:16.607Z,1.80
2023-03-06T01:45:19.524Z,2.00
2023-03-06T01:50:21.851Z,1.80
2023-03-06T01:55:30.307Z,1.92
2023-03-06T02:00:32.384Z,1.10
2023-03-06T02:05:35.058Z,1.73
2023-03-06T02:10:37.170Z,1.70
2023-03-06T02:15:39.291Z,1.30
2023-03-06T02:20:48.866Z,1.30
2023-03-06T02:25:52.948Z,1.48
2023-03-06T02:30:56.928Z,1.52
2023-03-06T02:36:05.080Z,1.00
2023-03-06T02:41:08.876Z,1.52
2023-03-06T02:46:11.433Z,1.20
2023-03-06T02:51:13.553Z,1.10
2023-03-06T02:56:15.697Z,1.83
2023-03-06T03:01:18.428Z,1.90
2023-03-06T03:06:20.743Z,1.80
2023-03-06T03:11:23.329Z,2.95
2023-03-06T03:16:25.434Z,2.30
2023-03-06T03:21:27.852Z,2.47
2023-03-06T03:26:30.910Z,2.00
2023-03-06T03:31:42.125Z,2.38
2023-03-06T03:36:45.355Z,2.38
2023-03-06T03:41:48.741Z,1.42
2023-03-06T03:46:51.613Z,1.95
2023-03-06T03:51:57.137Z,2.10
2023-03-06T03:57:01.964Z,2.08
2023-03-06T04:02:08.729Z,2.42
2023-03-06T04:07:18.802Z,1.75
2023-03-06T04:12:21.216Z,2.40
2023-03-06T04:17:23.482Z,1.95
2023-03-06T04:22:27.320Z,2.42
2023-03-06T04:27:29.559Z,2.42
2023-03-06T04:32:31.967Z,2.45
2023-03-06T04:37:35.020Z,2.33
2023-03-06T04:42:37.407Z,2.40
2023-03-06T04:47:40.053Z,2.50
2023-03-06T04:52:42.133Z,2.40
2023-03-06T04:57:46.625Z,1.80
2023-03-06T05:02:50.229Z,2.58
2023-03-06T05:07:53.382Z,2.17
2023-03-06T05:12:55.419Z,2.03
2023-03-06T05:17:57.433Z,3.03
2023-03-06T05:22:59.601Z,2.35
2023-03-06T05:28:01.746Z,2.70
2023-03-06T05:33:04.041Z,1.90
2023-03-06T05:38:06.107Z,2.80
2023-03-06T05:43:08.560Z,2.50
2023-03-06T05:48:12.941Z,2.60
2023-03-06T05:53:14.969Z,2.67
2023-03-06T05:58:17.007Z,2.53
2023-03-06T06:03:20.122Z,3.08
2023-03-06T06:08:22.348Z,2.08
2023-03-06T06:13:24.480Z,2.28
2023-03-06T06:18:26.686Z,2.55
2023-03-06T06:23:28.782Z,2.28
2023-03-06T06:28:31.194Z,2.15
2023-03-06T06:33:33.199Z,1.75
2023-03-06T06:38:35.271Z,1.85
2023-03-06T06:43:37.368Z,1.80
2023-03-06T06:48:39.498Z,2.30
2023-03-06T06:53:41.702Z,2.45
2023-03-06T06:58:43.821Z,2.65
2023-03-06T07:03:45.921Z,2.45
2023-03-06T07:08:47.954Z,1.23
2023-03-06T07:13:49.984Z,1.60
2023-03-06T07:18:52.047Z,1.67
2023-03-06T07:23:55.355Z,2.08
2023-03-06T07:28:57.426Z,1.45
2023-03-06T07:33:59.593Z,1.70
2023-03-06T07:39:01.893Z,1.30
2023-03-06T07:44:04.037Z,1.70
2023-03-06T07:49:06.211Z,1.10
2023-03-06T07:54:08.576Z,1.58
2023-03-06T07:59:12.051Z,2.00
2023-03-06T08:04:14.246Z,1.60
2023-03-06T08:09:16.416Z,1.20
2023-03-06T08:14:18.457Z,1.67
2023-03-06T08:19:20.668Z,1.15
2023-03-06T08:24:22.865Z,1.15
2023-03-06T08:34:27.034Z,0.88
2023-03-06T08:44:31.043Z,1.00
2023-03-06T08:49:33.278Z,0.90
2023-03-06T08:54:35.993Z,1.00
2023-03-06T08:59:38.192Z,0.90
2023-03-06T09:04:40.423Z,0.85
2023-03-06T09:09:42.820Z,0.70
2023-03-06T09:14:45.013Z,0.68
2023-03-06T09:19:47.172Z,0.50
2023-03-06T09:24:50.805Z,0.60
2023-03-06T09:29:52.787Z,0.98
2023-03-06T09:39:57.853Z,0.77
2023-03-06T09:45:02.374Z,1.05
2023-03-06T09:50:22.316Z,0.50
2023-03-06T09:55:31.352Z,0.43
2023-03-06T10:00:48.589Z,0.73
2023-03-06T10:05:57.479Z,0.40
2023-03-06T10:11:04.387Z,0.70
2023-03-06T10:16:28.004Z,0.85
2023-03-06T10:22:19.549Z,0.52
2023-03-06T10:27:34.799Z,0.60
2023-03-06T10:32:49.774Z,0.73
2023-03-06T10:38:05.449Z,0.55
2023-03-06T10:43:12.478Z,0.50
2023-03-06T10:48:20.079Z,0.65
2023-03-06T10:53:31.196Z,0.43
2023-03-06T10:58:33.273Z,1.33
2023-03-06T11:03:36.773Z,0.52
2023-03-06T11:08:40.710Z,0.57
2023-03-06T11:13:44.648Z,0.60
2023-03-06T11:19:07.214Z,0.88
2023-03-06T11:24:20.169Z,0.65
2023-03-06T11:34:54.362Z,0.50
2023-03-06T11:45:29.200Z,0.40
2023-03-06T11:50:39.252Z,0.60
2023-03-06T11:55:53.415Z,0.60
2023-03-06T12:01:22.412Z,0.50
2023-03-06T12:06:58.544Z,0.43
2023-03-06T12:12:37.758Z,1.02
2023-03-06T12:17:56.469Z,0.50
2023-03-06T12:23:26.236Z,0.40
2023-03-06T12:28:57.148Z,0.75
2023-03-06T12:34:14.368Z,0.60
2023-03-06T12:39:43.027Z,0.60
2023-03-06T12:44:47.885Z,0.40
2023-03-06T12:49:56.823Z,0.47
2023-03-06T12:55:01.457Z,0.30
2023-03-06T13:00:03.959Z,0.25
2023-03-06T13:05:25.978Z,0.40
2023-03-06T13:10:30.705Z,0.30
2023-03-06T13:15:35.470Z,0.70
2023-03-06T13:20:37.979Z,0.73
2023-03-06T13:25:49.067Z,0.50
2023-03-06T13:30:52.976Z,0.35
2023-03-06T13:35:57.334Z,0.30
2023-03-06T13:41:20.855Z,0.35
2023-03-06T13:46:35.390Z,0.50
2023-03-06T13:51:54.103Z,0.40
2023-03-06T13:57:23.652Z,0.40
2023-03-06T14:02:56.667Z,0.52
2023-03-06T14:08:11.083Z,0.40
2023-03-06T14:13:45.464Z,0.40
2023-03-06T14:18:51.594Z,1.40
2023-03-06T14:24:02.461Z,0.50
2023-03-06T14:29:04.502Z,0.30
2023-03-06T14:34:21.092Z,0.32
2023-03-06T14:39:34.589Z,0.30
2023-03-06T14:44:36.612Z,0.47
2023-03-06T14:49:38.625Z,0.50
2023-03-06T14:54:44.989Z,0.60
2023-03-06T14:59:58.414Z,0.50
2023-03-06T15:05:17.380Z,0.40
2023-03-06T15:10:31.040Z,0.35
2023-03-06T15:15:33.154Z,0.57
2023-03-06T15:20:44.613Z,0.50
2023-03-06T15:26:01.328Z,0.77
2023-03-06T15:31:21.179Z,0.57
2023-03-06T15:36:29.745Z,0.68
2023-03-06T15:41:35.744Z,0.47
2023-03-06T15:46:39.183Z,0.40
2023-03-06T15:51:41.254Z,0.50
2023-03-06T15:56:46.252Z,0.65
2023-03-06T16:01:48.972Z,0.52
2023-03-06T16:06:50.996Z,0.52
2023-03-06T16:11:53.101Z,1.00
2023-03-06T16:16:55.469Z,0.73
2023-03-06T16:21:57.545Z,0.30
2023-03-06T16:27:01.643Z,1.13
2023-03-06T16:32:04.609Z,0.80
2023-03-06T16:37:09.553Z,1.00
2023-03-06T16:42:11.622Z,0.90
2023-03-06T16:47:13.666Z,1.00
2023-03-06T16:52:16.411Z,0.82
2023-03-06T16:57:18.509Z,1.05
2023-03-06T17:02:20.637Z,0.95
2023-03-06T17:07:22.809Z,1.15
2023-03-06T17:12:24.900Z,1.20
2023-03-06T17:17:27.141Z,1.10
2023-03-06T17:22:29.305Z,0.88
2023-03-06T17:27:31.352Z,0.93
2023-03-06T17:32:33.746Z,0.93
2023-03-06T17:37:36.122Z,0.98
2023-03-06T17:42:38.332Z,0.70
2023-03-06T17:47:40.373Z,1.00
2023-03-06T17:52:42.422Z,1.15
2023-03-06T17:57:44.527Z,1.10
2023-03-06T18:02:47.031Z,1.08
2023-03-06T18:07:49.125Z,1.17
2023-03-06T18:12:51.438Z,1.23
2023-03-06T18:17:53.466Z,1.10
2023-03-06T18:22:55.587Z,1.00
2023-03-06T18:27:58.131Z,1.02
2023-03-06T18:33:00.292Z,0.77
2023-03-06T18:38:03.091Z,1.00
2023-03-06T18:43:05.180Z,0.82
2023-03-06T18:48:07.311Z,0.90
2023-03-06T18:53:09.315Z,1.10
2023-03-06T18:58:11.329Z,1.05
2023-03-06T19:03:14.601Z,0.85
2023-03-06T19:08:17.894Z,1.30
2023-03-06T19:13:20.030Z,1.10
2023-03-06T19:18:22.125Z,1.20
2023-03-06T19:23:24.365Z,1.80
2023-03-06T19:28:27.884Z,1.05
2023-03-06T19:33:30.013Z,1.60
2023-03-06T19:38:32.170Z,1.27
2023-03-06T19:43:34.266Z,1.00
2023-03-06T19:48:36.304Z,1.20
2023-03-06T19:53:39.934Z,1.33
2023-03-06T19:58:42.705Z,0.82
2023-03-06T20:03:44.932Z,1.55
2023-03-06T20:08:47.687Z,1.05
2023-03-06T20:13:49.901Z,1.45
2023-03-06T20:18:52.001Z,1.20
2023-03-06T20:23:57.023Z,1.00
2023-03-06T20:28:59.375Z,0.98
2023-03-06T20:34:02.345Z,1.40
2023-03-06T20:39:07.798Z,1.58
2023-03-06T20:44:16.515Z,1.50
2023-03-06T20:49:19.383Z,1.60
2023-03-06T20:54:21.480Z,1.15
2023-03-06T20:59:24.025Z,1.08
2023-03-06T21:04:26.166Z,1.38
2023-03-06T21:09:28.425Z,1.50
2023-03-06T21:14:30.663Z,1.30
2023-03-06T21:19:32.730Z,1.60
2023-03-06T21:24:36.078Z,1.50
2023-03-06T21:29:38.237Z,1.40
2023-03-06T21:34:40.426Z,1.50
2023-03-06T21:39:42.470Z,1.40
2023-03-06T21:44:44.772Z,1.15
2023-03-06T21:49:49.541Z,1.20
2023-03-06T21:54:51.677Z,1.25
2023-03-06T21:59:53.883Z,0.95
2023-03-06T22:04:55.917Z,1.48
2023-03-06T22:09:57.986Z,1.15
2023-03-06T22:15:00.239Z,1.20
2023-03-06T22:20:02.833Z,0.90
2023-03-06T22:25:06.036Z,0.93
2023-03-06T22:30:09.047Z,1.05
2023-03-06T22:35:11.152Z,0.88
2023-03-06T22:40:13.380Z,0.98
2023-03-06T22:45:15.484Z,0.75
2023-03-06T22:50:18.456Z,0.90
2023-03-06T22:55:20.514Z,0.75
2023-03-06T23:00:22.644Z,0.45
2023-03-06T23:05:24.737Z,0.45
2023-03-06T23:10:26.809Z,0.70
2023-03-06T23:15:47.721Z,0.57
2023-03-06T23:21:14.175Z,1.00
2023-03-06T23:26:35.562Z,0.52
2023-03-06T23:31:37.623Z,0.77
2023-03-06T23:36:39.730Z,0.90
2023-03-06T23:41:41.727Z,0.73
2023-03-06T23:46:43.829Z,0.80
2023-03-06T23:51:45.836Z,1.15
2023-03-06T23:56:47.830Z,0.95
